Time;durP1;ratioP1;P1;durP2;ratioP2;P2;SDS_P1;SDS_P2;PMS_P1;PMS_P2;Temp;Humidity;BMP_temperature;BMP_pressure;BME280_temperature;BME280_humidity;BME280_pressure;Samples;Min_cycle;Max_cycle;Signal;HPM_P1;HPM_P2
2022/09/01 00:00:29;;;;;;;8.88;8.68;;;16.90;99.90;;;;;;5102091;28;20241;-81
2022/09/01 00:02:59;;;;;;;8.60;8.40;;;16.90;99.90;;;;;;5101640;28;20221;-81
2022/09/01 00:05:31;;;;;;;8.70;8.50;;;16.80;99.90;;;;;;5101963;28;20226;-81
2022/09/01 00:08:06;;;;;;;8.48;8.27;;;16.60;99.90;;;;;;5102075;28;20225;-80
2022/09/01 00:10:36;;;;;;;8.50;8.30;;;16.60;99.90;;;;;;5102800;28;20260;-79
2022/09/01 00:13:05;;;;;;;8.10;7.90;;;16.60;99.90;;;;;;5102823;28;20225;-79
2022/09/01 00:15:34;;;;;;;8.45;8.25;;;16.70;99.90;;;;;;5102470;28;20234;-81
2022/09/01 00:18:04;;;;;;;8.43;8.23;;;16.70;99.90;;;;;;5108905;28;20225;-81
2022/09/01 00:20:33;;;;;;;8.18;7.97;;;16.80;99.90;;;;;;5116679;28;20229;-80
2022/09/01 00:25:50;;;;;;;8.93;8.73;;;16.80;99.90;;;;;;5101182;28;20229;-81
2022/09/01 00:28:19;;;;;;;8.55;8.35;;;16.80;99.90;;;;;;5105348;28;20259;-81
2022/09/01 00:30:47;;;;;;;8.88;8.68;;;16.80;99.90;;;;;;5103951;28;20233;-81
2022/09/01 00:33:18;;;;;;;8.20;8.00;;;16.90;99.90;;;;;;5103571;28;20225;-82
2022/09/01 00:35:50;;;;;;;8.60;8.40;;;17.00;99.90;;;;;;5103261;28;20252;-82
2022/09/01 00:38:20;;;;;;;8.48;8.27;;;17.10;99.90;;;;;;5103403;28;20229;-80
2022/09/01 00:40:48;;;;;;;8.80;8.60;;;17.10;99.90;;;;;;5102654;28;20237;-80
2022/09/01 00:43:28;;;;;;;8.40;8.20;;;17.20;99.90;;;;;;5102873;28;20225;-80
2022/09/01 00:45:56;;;;;;;8.15;7.95;;;17.20;99.90;;;;;;5113898;28;20272;-81
2022/09/01 00:48:24;;;;;;;8.55;8.35;;;17.20;99.90;;;;;;5118845;28;20240;-81
2022/09/01 00:50:54;;;;;;;8.73;8.52;;;17.30;99.90;;;;;;5118029;28;20248;-82
2022/09/01 00:53:27;;;;;;;8.43;8.23;;;17.30;99.90;;;;;;5118368;28;20230;-81
2022/09/01 00:55:59;;;;;;;8.73;8.52;;;17.30;99.90;;;;;;5116367;28;20264;-80
2022/09/01 00:58:33;;;;;;;8.32;8.13;;;17.30;99.90;;;;;;5118481;28;20236;-81
2022/09/01 01:01:01;;;;;;;8.57;8.38;;;17.30;99.90;;;;;;5118824;28;20263;-81
2022/09/01 01:03:30;;;;;;;8.30;8.10;;;17.30;99.90;;;;;;5118566;28;20229;-81
2022/09/01 01:06:09;;;;;;;8.38;8.18;;;17.30;99.90;;;;;;5103570;28;20280;-81
2022/09/01 01:08:57;;;;;;;8.63;8.43;;;17.30;99.90;;;;;;5102891;28;20233;-81
2022/09/01 01:11:27;;;;;;;8.80;8.60;;;17.30;99.90;;;;;;5108469;28;20244;-81
2022/09/01 01:14:09;;;;;;;8.52;8.32;;;17.30;99.90;;;;;;5103843;28;20316;-81
2022/09/01 01:16:43;;;;;;;8.90;8.70;;;17.30;99.90;;;;;;5102930;28;20311;-80
2022/09/01 01:24:51;;;;;;;9.00;8.80;;;17.30;99.90;;;;;;5101306;28;20241;-81
2022/09/01 01:27:25;;;;;;;8.90;8.70;;;17.20;99.90;;;;;;5101262;28;20580;-81
2022/09/01 01:29:54;;;;;;;8.80;8.60;;;17.10;99.90;;;;;;5101355;28;20264;-81
2022/09/01 01:32:22;;;;;;;9.02;8.82;;;17.00;99.90;;;;;;5101242;28;20235;-82
2022/09/01 01:34:52;;;;;;;9.15;8.88;;;17.00;99.90;;;;;;5101116;28;20283;-82
2022/09/01 01:37:23;;;;;;;8.82;8.63;;;17.00;99.90;;;;;;5101329;28;20260;-81
2022/09/01 01:42:36;;;;;;;8.80;8.60;;;17.00;99.90;;;;;;5099820;28;20233;-81
2022/09/01 01:45:06;;;;;;;8.80;8.60;;;17.10;99.90;;;;;;5100485;28;20244;-80
2022/09/01 01:47:36;;;;;;;9.05;8.80;;;17.10;99.90;;;;;;5101176;28;20236;-81
2022/09/01 01:50:08;;;;;;;8.70;8.50;;;17.10;99.90;;;;;;5100786;28;20237;-80
2022/09/01 01:52:35;;;;;;;8.68;8.48;;;17.10;99.90;;;;;;5101306;28;20230;-82
2022/09/01 01:55:18;;;;;;;8.60;8.40;;;17.10;99.90;;;;;;5100246;28;20295;-81
2022/09/01 01:57:52;;;;;;;8.60;8.40;;;17.00;99.90;;;;;;5101177;28;20225;-81
2022/09/01 02:00:23;;;;;;;8.80;8.60;;;16.90;99.90;;;;;;5100474;28;20240;-81
2022/09/01 02:02:52;;;;;;;8.65;8.45;;;16.80;99.90;;;;;;5100452;28;20303;-82
2022/09/01 02:05:24;;;;;;;8.90;8.70;;;16.80;99.90;;;;;;5099231;28;20289;-80
2022/09/01 02:08:00;;;;;;;8.98;8.77;;;16.90;99.90;;;;;;5100145;28;20284;-82
2022/09/01 02:10:36;;;;;;;8.95;8.75;;;16.90;99.90;;;;;;5100349;28;20237;-81
2022/09/01 02:13:07;;;;;;;8.77;8.57;;;16.80;99.90;;;;;;5100490;28;20256;-82
2022/09/01 02:15:42;;;;;;;8.70;8.50;;;16.80;99.90;;;;;;5099859;28;20226;-81
2022/09/01 02:18:15;;;;;;;8.70;8.50;;;16.80;99.90;;;;;;5099903;28;20225;-81
2022/09/01 02:20:43;;;;;;;8.82;8.63;;;16.80;99.90;;;;;;5098858;28;20237;-81
2022/09/01 02:23:14;;;;;;;8.48;8.27;;;16.80;99.90;;;;;;5100081;28;20295;-81
2022/09/01 02:25:52;;;;;;;8.90;8.70;;;16.80;99.90;;;;;;5099053;28;20235;-81
2022/09/01 02:28:21;;;;;;;8.90;8.70;;;16.80;99.90;;;;;;5099864;28;20321;-81
2022/09/01 02:30:53;;;;;;;9.10;8.80;;;16.80;99.90;;;;;;5102245;28;20339;-81
2022/09/01 02:33:24;;;;;;;8.90;8.70;;;16.70;99.90;;;;;;5103542;28;20237;-81
2022/09/01 02:36:00;;;;;;;9.13;8.82;;;16.70;99.90;;;;;;5102946;28;20213;-81
2022/09/01 02:38:30;;;;;;;9.30;9.00;;;16.70;99.90;;;;;;5111941;28;20210;-81
2022/09/01 02:41:04;;;;;;;9.18;8.88;;;16.60;99.90;;;;;;5107575;28;20237;-81
2022/09/01 02:43:38;;;;;;;9.30;9.00;;;16.60;99.90;;;;;;5104987;28;20228;-82
2022/09/01 02:46:07;;;;;;;9.30;9.00;;;16.50;99.90;;;;;;5103199;28;20228;-81
2022/09/01 02:48:37;;;;;;;9.30;9.00;;;16.50;99.90;;;;;;5103855;28;20222;-81
2022/09/01 02:51:13;;;;;;;9.25;8.95;;;16.50;99.90;;;;;;5105011;28;20248;-81
2022/09/01 02:53:42;;;;;;;8.80;8.60;;;16.50;99.90;;;;;;5104444;28;20252;-81
2022/09/01 02:56:15;;;;;;;9.38;9.07;;;16.40;99.90;;;;;;5103473;28;20316;-81
2022/09/01 02:58:50;;;;;;;9.35;9.05;;;16.40;99.90;;;;;;5102544;28;20265;-81
2022/09/01 03:01:23;;;;;;;8.88;8.68;;;16.30;99.90;;;;;;5102663;28;20236;-81
2022/09/01 03:03:58;;;;;;;9.20;8.90;;;16.30;99.90;;;;;;5103042;28;20676;-81
2022/09/01 03:06:27;;;;;;;9.25;8.95;;;16.20;99.90;;;;;;5102569;28;20308;-81
2022/09/01 03:08:59;;;;;;;9.13;8.82;;;16.20;99.90;;;;;;5102470;28;20236;-81
2022/09/01 03:11:32;;;;;;;9.20;8.90;;;16.20;99.90;;;;;;5102962;28;20239;-80
2022/09/01 03:14:04;;;;;;;9.45;9.15;;;16.10;99.90;;;;;;5102912;28;20232;-81
2022/09/01 03:16:35;;;;;;;9.23;8.93;;;16.10;99.90;;;;;;5102075;28;20222;-81
2022/09/01 03:19:06;;;;;;;9.20;8.90;;;16.10;99.90;;;;;;5102741;28;20229;-80
2022/09/01 03:21:33;;;;;;;9.40;9.10;;;16.10;99.90;;;;;;5103227;28;20251;-81
2022/09/01 03:24:02;;;;;;;9.30;9.00;;;16.00;99.90;;;;;;5103279;28;20229;-81
2022/09/01 03:26:41;;;;;;;9.23;8.93;;;16.00;99.90;;;;;;5102607;28;20324;-81
2022/09/01 03:29:10;;;;;;;9.50;9.20;;;16.00;99.90;;;;;;5102315;28;20234;-82
2022/09/01 03:31:41;;;;;;;9.20;8.90;;;16.00;99.90;;;;;;5102873;28;20235;-81
2022/09/01 03:34:11;;;;;;;9.13;8.82;;;15.90;99.90;;;;;;5103581;28;20314;-81
2022/09/01 03:36:48;;;;;;;9.30;9.00;;;15.90;99.90;;;;;;5112517;28;20232;-81
2022/09/01 03:39:17;;;;;;;9.43;9.13;;;15.90;99.90;;;;;;5116384;28;20213;-81
2022/09/01 03:41:55;;;;;;;9.18;8.88;;;15.90;99.90;;;;;;5116025;28;20256;-81
2022/09/01 03:44:24;;;;;;;9.32;9.02;;;15.80;99.90;;;;;;5116939;28;20237;-81
2022/09/01 03:46:53;;;;;;;9.13;8.82;;;15.80;99.90;;;;;;5116230;28;20332;-81
2022/09/01 03:49:23;;;;;;;9.10;8.80;;;15.70;99.90;;;;;;5118202;28;20218;-81
2022/09/01 03:51:52;;;;;;;9.27;8.98;;;15.70;99.90;;;;;;5118802;28;20238;-80
2022/09/01 03:54:23;;;;;;;9.23;8.93;;;15.60;99.90;;;;;;5117981;28;20259;-81
2022/09/01 03:56:54;;;;;;;9.40;9.10;;;15.60;99.90;;;;;;5118483;28;20231;-80
2022/09/01 03:59:21;;;;;;;9.07;8.77;;;15.50;99.90;;;;;;5117043;28;20229;-81
2022/09/01 04:01:51;;;;;;;9.10;8.80;;;15.50;99.90;;;;;;5115040;28;20244;-81
2022/09/01 04:04:20;;;;;;;9.35;9.05;;;15.50;99.90;;;;;;5112372;28;20229;-81
2022/09/01 04:06:50;;;;;;;9.32;9.02;;;15.40;99.90;;;;;;5109439;28;20229;-81
2022/09/01 04:09:19;;;;;;;9.40;9.10;;;15.40;99.90;;;;;;5108860;28;20322;-81
2022/09/01 04:11:50;;;;;;;9.40;9.10;;;15.30;99.90;;;;;;5104462;28;20226;-81
2022/09/01 04:14:20;;;;;;;9.82;9.52;;;15.20;99.90;;;;;;5104283;28;20299;-81
2022/09/01 04:19:38;;;;;;;10.00;9.70;;;15.10;99.90;;;;;;5105688;28;20253;-80
2022/09/01 04:22:16;;;;;;;10.27;9.98;;;15.10;99.90;;;;;;5103503;28;20259;-80
2022/09/01 04:24:45;;;;;;;10.20;9.90;;;15.00;99.90;;;;;;5112904;28;20230;-82
2022/09/01 04:27:13;;;;;;;10.30;10.00;;;15.10;99.90;;;;;;5105009;28;20257;-82
2022/09/01 04:29:44;;;;;;;10.40;10.10;;;15.00;99.90;;;;;;5104602;28;20234;-81
2022/09/01 04:32:14;;;;;;;10.00;9.70;;;15.10;99.90;;;;;;5103595;28;20222;-81
2022/09/01 04:34:42;;;;;;;10.05;9.75;;;15.10;99.90;;;;;;5102844;28;20237;-81
2022/09/01 04:37:13;;;;;;;9.90;9.60;;;15.10;99.90;;;;;;5102675;28;20331;-80
2022/09/01 04:39:47;;;;;;;10.20;9.90;;;15.10;99.90;;;;;;5102187;28;20323;-81
2022/09/01 04:42:22;;;;;;;9.82;9.52;;;15.00;99.90;;;;;;5102079;28;20233;-81
2022/09/01 04:44:59;;;;;;;9.65;9.35;;;15.10;99.90;;;;;;5102020;28;20233;-81
2022/09/01 04:50:15;;;;;;;10.00;9.70;;;15.00;99.90;;;;;;5095963;28;20233;-80
2022/09/01 04:52:44;;;;;;;9.68;9.38;;;15.00;99.90;;;;;;5100812;28;20267;-80
2022/09/01 04:55:16;;;;;;;9.70;9.40;;;15.00;99.90;;;;;;5101676;28;20267;-82
2022/09/01 04:57:50;;;;;;;9.48;9.18;;;15.00;99.90;;;;;;5101947;28;20237;-81
2022/09/01 05:03:08;;;;;;;9.77;9.48;;;15.00;99.90;;;;;;5101003;28;20243;-81
2022/09/01 05:05:44;;;;;;;9.55;9.25;;;15.10;99.90;;;;;;5101592;28;20233;-81
2022/09/01 05:08:16;;;;;;;9.80;9.50;;;15.10;99.90;;;;;;5103158;28;20240;-81
2022/09/01 05:10:49;;;;;;;10.00;9.70;;;15.10;99.90;;;;;;5109907;28;20274;-81
2022/09/01 05:13:21;;;;;;;10.02;9.73;;;15.10;99.90;;;;;;5120648;28;20217;-81
2022/09/01 05:16:11;;;;;;;10.10;9.80;;;15.20;99.90;;;;;;5120145;28;20237;-81
2022/09/01 05:18:41;;;;;;;9.80;9.50;;;15.10;99.90;;;;;;5120674;28;20243;-81
2022/09/01 05:21:09;;;;;;;9.75;9.45;;;15.20;99.90;;;;;;5129735;22;20237;-84
2022/09/01 05:23:39;;;;;;;9.60;9.30;;;15.20;99.90;;;;;;5103633;28;20233;-84
2022/09/01 05:26:16;;;;;;;10.05;9.75;;;15.20;99.90;;;;;;5103005;28;20235;-85
2022/09/01 05:28:54;;;;;;;9.77;9.48;;;15.20;99.90;;;;;;5103866;28;20236;-84
2022/09/01 05:31:36;;;;;;;9.55;9.25;;;15.20;99.90;;;;;;5103729;28;20234;-84
2022/09/01 05:34:23;;;;;;;9.55;9.25;;;15.20;99.90;;;;;;5104634;28;20236;-85
2022/09/01 05:37:01;;;;;;;9.70;9.40;;;15.20;99.90;;;;;;5106400;28;20229;-85
2022/09/01 05:39:31;;;;;;;9.80;9.50;;;15.30;99.90;;;;;;5105424;28;20217;-84
2022/09/01 05:42:06;;;;;;;9.70;9.40;;;15.30;99.90;;;;;;5104782;28;20229;-84
2022/09/01 05:44:35;;;;;;;9.50;9.20;;;15.30;99.90;;;;;;5103985;28;20286;-84
2022/09/01 05:47:14;;;;;;;9.98;9.68;;;15.30;99.90;;;;;;5103649;28;20287;-84
2022/09/01 05:49:43;;;;;;;9.93;9.63;;;15.40;99.90;;;;;;5103899;28;20225;-84
2022/09/01 05:52:11;;;;;;;9.60;9.30;;;15.50;99.90;;;;;;5104805;28;20209;-84
2022/09/01 05:54:46;;;;;;;9.60;9.30;;;15.50;99.90;;;;;;5103232;28;20367;-85
2022/09/01 05:57:19;;;;;;;9.73;9.43;;;15.50;99.90;;;;;;5104861;28;20224;-84
2022/09/01 05:59:52;;;;;;;9.68;9.38;;;15.60;99.90;;;;;;5104621;28;20268;-85
2022/09/01 06:02:27;;;;;;;9.60;9.30;;;15.60;99.90;;;;;;5104434;28;20214;-84
2022/09/01 06:04:58;;;;;;;9.70;9.40;;;15.70;99.90;;;;;;5104734;28;20233;-84
2022/09/01 06:07:27;;;;;;;9.70;9.40;;;15.70;99.90;;;;;;5106903;28;20290;-84
2022/09/01 06:09:55;;;;;;;9.70;9.40;;;15.90;99.90;;;;;;5106323;28;20264;-84
2022/09/01 06:12:26;;;;;;;9.55;9.25;;;16.00;99.90;;;;;;5106472;28;20340;-84
2022/09/01 06:14:57;;;;;;;9.48;9.18;;;16.10;99.90;;;;;;5106301;28;20260;-84
2022/09/01 06:20:17;;;;;;;9.60;9.30;;;16.20;99.90;;;;;;5105760;28;20328;-84
2022/09/01 06:22:48;;;;;;;9.55;9.25;;;16.30;99.90;;;;;;5106500;28;20225;-84
2022/09/01 06:25:19;;;;;;;9.95;9.65;;;16.40;99.90;;;;;;5105842;28;20237;-84
2022/09/01 06:27:51;;;;;;;9.85;9.55;;;16.50;99.90;;;;;;5105847;28;20233;-84
2022/09/01 06:30:29;;;;;;;9.70;9.40;;;16.50;99.90;;;;;;5105259;28;20255;-84
2022/09/01 06:33:08;;;;;;;9.77;9.48;;;16.60;99.90;;;;;;5106673;28;20312;-84
2022/09/01 06:35:47;;;;;;;10.00;9.70;;;16.80;99.90;;;;;;5105697;28;20221;-84
2022/09/01 06:38:24;;;;;;;10.05;9.75;;;16.90;99.90;;;;;;5105512;28;20268;-84
2022/09/01 06:41:11;;;;;;;9.68;9.38;;;17.00;99.90;;;;;;5105993;28;20233;-84
2022/09/01 06:43:42;;;;;;;10.30;10.00;;;17.00;99.90;;;;;;5106435;28;20225;-84
2022/09/01 06:46:19;;;;;;;9.93;9.63;;;16.90;99.90;;;;;;5106237;28;20233;-84
2022/09/01 06:48:49;;;;;;;9.95;9.65;;;17.00;99.90;;;;;;5106447;28;20233;-84
2022/09/01 06:51:25;;;;;;;10.25;9.95;;;17.10;99.90;;;;;;5105200;28;20239;-84
2022/09/01 06:53:58;;;;;;;9.98;9.68;;;17.10;99.90;;;;;;5105833;28;20226;-84
2022/09/01 06:56:34;;;;;;;9.93;9.63;;;17.20;99.90;;;;;;5105305;28;20229;-83
2022/09/01 06:59:04;;;;;;;10.27;9.98;;;17.20;99.90;;;;;;5106379;28;20236;-84
2022/09/01 07:01:34;;;;;;;10.05;9.75;;;17.30;99.90;;;;;;5106050;28;20304;-84
2022/09/01 07:04:21;;;;;;;10.10;9.80;;;17.30;99.90;;;;;;5108066;28;20226;-84
2022/09/01 07:06:56;;;;;;;10.10;9.80;;;17.40;99.90;;;;;;5109996;28;20339;-84
2022/09/01 07:09:28;;;;;;;9.90;9.60;;;17.50;99.90;;;;;;5109657;28;20233;-84
2022/09/01 07:12:04;;;;;;;9.70;9.40;;;17.60;99.90;;;;;;5113098;28;20237;-85
2022/09/01 07:14:34;;;;;;;9.60;9.30;;;17.70;99.90;;;;;;5111429;28;20232;-84
2022/09/01 07:17:06;;;;;;;9.50;9.20;;;17.70;99.90;;;;;;5107014;28;20320;-84
2022/09/01 07:19:41;;;;;;;9.90;9.60;;;17.80;99.90;;;;;;5106800;28;20240;-84
2022/09/01 07:22:11;;;;;;;10.10;9.80;;;17.80;99.90;;;;;;5107172;28;20236;-84
2022/09/01 07:24:44;;;;;;;9.70;9.40;;;17.80;99.90;;;;;;5105948;28;20324;-84
2022/09/01 07:29:59;;;;;;;10.20;9.90;;;18.00;99.90;;;;;;5105665;28;20225;-84
2022/09/01 07:32:35;;;;;;;10.07;9.77;;;18.00;99.90;;;;;;5105760;28;20237;-85
2022/09/01 07:38:11;;;;;;;10.35;10.05;;;18.20;99.90;;;;;;5105444;28;20217;-84
2022/09/01 07:40:51;;;;;;;10.50;10.20;;;18.20;99.90;;;;;;5105056;28;20249;-84
2022/09/01 07:43:31;;;;;;;10.52;10.23;;;18.40;99.90;;;;;;5105876;28;20221;-84
2022/09/01 07:46:05;;;;;;;10.07;9.77;;;18.50;99.90;;;;;;5106756;28;20225;-84
2022/09/01 07:48:37;;;;;;;10.40;10.10;;;18.60;99.90;;;;;;5109417;28;20279;-85
2022/09/01 07:51:20;;;;;;;10.52;10.23;;;18.70;99.90;;;;;;5106669;28;20239;-84
2022/09/01 07:59:28;;;;;;;10.55;10.25;;;19.10;99.90;;;;;;5106032;28;20213;-85
2022/09/01 08:04:43;;;;;;;10.80;10.50;;;19.20;99.90;;;;;;5105048;28;20226;-84
2022/09/01 08:07:19;;;;;;;10.82;10.52;;;19.20;99.90;;;;;;5104940;28;20285;-84
2022/09/01 08:09:57;;;;;;;10.90;10.60;;;19.30;99.90;;;;;;5105042;28;20233;-84
2022/09/01 08:12:27;;;;;;;10.98;10.68;;;19.30;99.90;;;;;;5104979;28;20233;-84
2022/09/01 08:14:58;;;;;;;11.15;10.85;;;19.50;99.90;;;;;;5104920;28;20237;-84
2022/09/01 08:17:51;;;;;;;11.00;10.70;;;19.60;99.90;;;;;;5105287;28;20228;-84
2022/09/01 08:20:21;;;;;;;10.90;10.60;;;19.70;99.90;;;;;;5104519;28;20241;-84
2022/09/01 08:29:02;;;;;;;10.80;10.50;;;20.00;99.90;;;;;;5102649;28;20220;-84
2022/09/01 08:31:32;;;;;;;10.73;10.43;;;20.10;99.90;;;;;;5104248;28;20244;-84
2022/09/01 08:34:11;;;;;;;10.70;10.40;;;20.40;99.90;;;;;;5104868;28;20240;-85
2022/09/01 08:36:54;;;;;;;10.88;10.57;;;20.60;99.90;;;;;;5103135;28;20229;-84
2022/09/01 08:39:42;;;;;;;10.90;10.60;;;20.70;99.90;;;;;;5103936;28;20213;-84
2022/09/01 08:42:39;;;;;;;11.30;11.00;;;20.80;99.90;;;;;;5103773;28;20229;-84
2022/09/01 08:48:13;;;;;;;11.68;11.27;;;21.10;99.90;;;;;;5120290;27;20223;-83
2022/09/01 08:50:54;;;;;;;11.10;10.80;;;21.30;99.90;;;;;;5118759;28;20236;-84
2022/09/01 08:53:39;;;;;;;11.63;11.23;;;21.40;99.90;;;;;;5111242;28;20283;-83
2022/09/01 08:56:18;;;;;;;11.15;10.85;;;21.50;99.90;;;;;;5109686;28;20233;-84
2022/09/01 08:58:59;;;;;;;11.15;10.85;;;21.60;99.90;;;;;;5107928;28;20229;-84
2022/09/01 09:01:44;;;;;;;11.18;10.88;;;21.80;99.90;;;;;;5106510;28;20224;-84
2022/09/01 09:04:39;;;;;;;11.63;11.23;;;22.00;99.90;;;;;;5106960;28;20221;-84
2022/09/01 09:10:16;;;;;;;11.57;11.18;;;22.50;99.90;;;;;;5105079;28;20225;-84
2022/09/01 09:13:12;;;;;;;11.27;10.98;;;22.60;99.90;;;;;;5104125;28;20229;-84
2022/09/01 09:15:54;;;;;;;11.50;11.20;;;22.50;99.90;;;;;;5103003;28;20237;-84
2022/09/01 09:21:32;;;;;;;11.20;10.90;;;22.40;99.90;;;;;;5101343;28;20229;-85
2022/09/01 09:24:46;;;;;;;11.02;10.73;;;22.50;99.90;;;;;;5103070;28;20213;-85
2022/09/01 09:27:40;;;;;;;11.05;10.75;;;22.70;99.90;;;;;;5103395;28;20770;-85
2022/09/01 09:30:26;;;;;;;10.77;10.48;;;22.70;99.90;;;;;;5102487;28;20324;-85
2022/09/01 09:33:04;;;;;;;11.05;10.75;;;22.80;99.90;;;;;;5103644;28;20248;-85
2022/09/01 09:35:45;;;;;;;11.10;10.80;;;22.90;99.90;;;;;;5106358;28;20224;-85
2022/09/01 09:41:25;;;;;;;11.00;10.70;;;22.60;99.90;;;;;;5103552;28;20225;-84
2022/09/01 09:44:04;;;;;;;11.02;10.73;;;22.50;99.90;;;;;;5114138;27;20236;-83
2022/09/01 09:46:47;;;;;;;11.10;10.80;;;22.60;99.90;;;;;;5119670;27;20209;-83
2022/09/01 09:49:22;;;;;;;11.10;10.80;;;22.50;99.90;;;;;;5120194;27;20221;-83
2022/09/01 09:51:57;;;;;;;11.00;10.70;;;22.40;99.90;;;;;;5120063;27;20220;-84
2022/09/01 09:54:35;;;;;;;10.80;10.50;;;22.30;99.90;;;;;;5119719;27;20221;-84
2022/09/01 09:57:16;;;;;;;10.88;10.57;;;22.40;99.90;;;;;;5104219;28;20236;-84
2022/09/01 09:59:52;;;;;;;11.02;10.73;;;22.60;99.90;;;;;;5108007;28;20233;-85
2022/09/01 10:05:55;;;;;;;10.77;10.48;;;23.00;99.90;;;;;;5104810;28;20225;-84
2022/09/01 10:08:50;;;;;;;10.80;10.50;;;23.00;99.90;;;;;;5102837;28;20245;-85
2022/09/01 10:11:45;;;;;;;10.77;10.48;;;23.10;99.90;;;;;;5101478;28;20233;-85
2022/09/01 10:17:21;;;;;;;10.50;10.20;;;23.20;99.90;;;;;;5100641;28;20263;-84
2022/09/01 10:20:07;;;;;;;10.50;10.20;;;23.30;99.90;;;;;;5101956;28;20233;-84
2022/09/01 10:22:42;;;;;;;10.45;10.15;;;23.40;99.90;;;;;;5102010;28;20245;-85
2022/09/01 10:25:21;;;;;;;10.60;10.30;;;23.50;99.90;;;;;;5101277;28;20259;-85
2022/09/01 10:28:02;;;;;;;10.88;10.57;;;23.50;99.90;;;;;;5101180;28;20235;-85
2022/09/01 10:30:41;;;;;;;10.70;10.40;;;23.40;99.90;;;;;;5101770;28;20285;-85
2022/09/01 10:33:15;;;;;;;10.75;10.45;;;23.30;99.90;;;;;;5103980;28;20256;-86
2022/09/01 10:36:08;;;;;;;10.90;10.60;;;23.40;99.90;;;;;;5101823;28;20229;-85
2022/09/01 10:38:53;;;;;;;10.65;10.35;;;23.20;99.90;;;;;;5102336;28;20222;-85
2022/09/01 10:42:06;;;;;;;10.68;10.38;;;23.00;99.90;;;;;;5102595;28;20237;-85
2022/09/01 10:44:45;;;;;;;10.68;10.38;;;22.80;99.90;;;;;;5103204;28;20261;-85
2022/09/01 10:47:39;;;;;;;10.60;10.30;;;22.80;99.90;;;;;;5104213;28;20248;-85
2022/09/01 10:50:35;;;;;;;10.90;10.60;;;22.90;99.90;;;;;;5105642;28;20230;-85
2022/09/01 10:53:13;;;;;;;10.75;10.45;;;22.90;99.90;;;;;;5104224;28;20221;-83
2022/09/01 10:56:09;;;;;;;10.70;10.40;;;23.00;99.90;;;;;;5104502;28;20264;-84
2022/09/01 10:59:05;;;;;;;10.68;10.38;;;23.00;99.90;;;;;;5105382;28;20233;-84
2022/09/01 11:02:22;;;;;;;10.60;10.30;;;22.80;99.90;;;;;;5104531;28;20316;-84
2022/09/01 11:05:24;;;;;;;10.70;10.40;;;22.60;99.90;;;;;;5105149;28;20221;-84
2022/09/01 11:07:57;;;;;;;10.75;10.45;;;22.50;99.90;;;;;;5104972;28;20323;-84
2022/09/01 11:10:56;;;;;;;10.60;10.30;;;22.40;99.90;;;;;;5104655;28;20242;-84
2022/09/01 11:13:48;;;;;;;10.45;10.15;;;22.30;99.90;;;;;;5104348;28;20237;-84
2022/09/01 11:16:42;;;;;;;10.90;10.60;;;22.40;99.90;;;;;;5103841;28;20221;-84
2022/09/01 11:19:44;;;;;;;11.07;10.77;;;22.40;99.90;;;;;;5104434;28;20283;-85
2022/09/01 11:22:26;;;;;;;11.20;10.90;;;22.40;99.90;;;;;;5139573;22;20237;-80
2022/09/01 11:25:26;;;;;;;11.40;11.10;;;22.40;99.90;;;;;;5118224;28;20206;-81
2022/09/01 11:28:05;;;;;;;11.00;10.70;;;22.50;99.90;;;;;;5112223;28;20225;-81
2022/09/01 11:30:53;;;;;;;11.20;10.90;;;22.70;99.90;;;;;;5109431;28;20360;-78
2022/09/01 11:33:57;;;;;;;11.40;11.10;;;22.70;99.90;;;;;;5118881;28;20233;-79
2022/09/01 11:36:34;;;;;;;10.95;10.65;;;22.70;99.90;;;;;;5118393;28;20225;-79
2022/09/01 11:39:28;;;;;;;11.00;10.70;;;22.90;99.90;;;;;;5119766;28;20257;-79
2022/09/01 11:42:00;;;;;;;10.80;10.50;;;23.10;99.90;;;;;;5120210;28;20237;-79
2022/09/01 11:44:40;;;;;;;10.90;10.60;;;23.30;99.90;;;;;;5117538;28;20316;-80
2022/09/01 11:47:16;;;;;;;10.85;10.55;;;23.60;99.90;;;;;;5112684;28;20292;-79
2022/09/01 11:49:54;;;;;;;10.98;10.68;;;23.80;99.90;;;;;;5111108;28;20308;-79
2022/09/01 11:52:26;;;;;;;11.35;11.05;;;23.90;99.90;;;;;;5111272;28;20236;-79
2022/09/01 11:54:54;;;;;;;11.18;10.88;;;23.90;99.90;;;;;;5110564;28;20210;-79
2022/09/01 11:57:33;;;;;;;11.23;10.93;;;23.80;99.90;;;;;;5111633;28;20237;-78
2022/09/01 12:00:10;;;;;;;11.23;10.93;;;23.70;99.90;;;;;;5111051;28;20282;-79
2022/09/01 12:02:48;;;;;;;11.00;10.70;;;23.60;99.90;;;;;;5114045;28;20217;-78
2022/09/01 12:05:30;;;;;;;10.95;10.65;;;23.50;99.90;;;;;;5118799;28;20272;-79
2022/09/01 12:07:58;;;;;;;11.13;10.82;;;23.20;99.90;;;;;;5119551;28;20252;-79
2022/09/01 12:10:34;;;;;;;10.75;10.45;;;22.80;99.90;;;;;;5119719;28;20225;-79
2022/09/01 12:13:05;;;;;;;10.55;10.25;;;22.60;99.90;;;;;;5117517;28;20285;-80
2022/09/01 12:15:42;;;;;;;10.75;10.45;;;22.40;99.90;;;;;;5117938;28;20236;-79
2022/09/01 12:18:22;;;;;;;11.30;11.00;;;22.30;99.90;;;;;;5118343;27;20217;-80
2022/09/01 12:21:02;;;;;;;11.00;10.70;;;22.20;99.90;;;;;;5119127;28;20292;-81
2022/09/01 12:23:39;;;;;;;11.10;10.80;;;22.20;99.90;;;;;;5119275;27;20228;-78
2022/09/01 12:26:15;;;;;;;11.00;10.70;;;22.10;99.90;;;;;;5117453;28;20217;-79
2022/09/01 12:28:44;;;;;;;11.00;10.70;;;22.10;99.90;;;;;;5116118;28;20241;-79
2022/09/01 12:31:22;;;;;;;11.02;10.73;;;22.00;99.90;;;;;;5113764;28;20325;-79
2022/09/01 12:33:52;;;;;;;11.00;10.70;;;22.00;99.90;;;;;;5116895;28;20218;-80
2022/09/01 12:36:25;;;;;;;10.85;10.55;;;21.80;99.90;;;;;;5117022;28;20229;-79
2022/09/01 12:38:54;;;;;;;10.90;10.60;;;21.80;99.90;;;;;;5117498;27;20241;-79
2022/09/01 12:41:40;;;;;;;10.80;10.50;;;21.80;99.90;;;;;;5110433;28;20245;-79
2022/09/01 12:44:36;;;;;;;10.60;10.30;;;21.90;99.90;;;;;;5103596;28;20233;-79
2022/09/01 12:47:12;;;;;;;10.80;10.50;;;21.90;99.90;;;;;;5096182;28;20320;-80
2022/09/01 12:49:43;;;;;;;10.98;10.68;;;22.10;99.90;;;;;;5105160;28;20247;-80
2022/09/01 12:52:40;;;;;;;10.90;10.60;;;22.20;99.90;;;;;;5107377;28;20233;-80
2022/09/01 12:55:17;;;;;;;11.27;10.98;;;22.40;99.90;;;;;;5114774;28;20244;-80
2022/09/01 12:57:55;;;;;;;10.98;10.68;;;22.50;99.90;;;;;;5110715;28;21126;-81
2022/09/01 13:00:27;;;;;;;11.00;10.70;;;22.60;99.90;;;;;;5105879;28;20228;-80
2022/09/01 13:03:13;;;;;;;11.30;11.00;;;22.80;99.90;;;;;;5103353;28;20260;-80
2022/09/01 13:05:42;;;;;;;11.15;10.85;;;23.00;99.90;;;;;;5103066;28;20233;-80
2022/09/01 13:08:12;;;;;;;11.38;11.07;;;22.90;99.90;;;;;;5105759;28;20225;-80
2022/09/01 13:10:42;;;;;;;11.43;11.13;;;22.90;99.90;;;;;;5109598;28;20275;-79
2022/09/01 13:13:11;;;;;;;11.30;11.00;;;22.80;99.90;;;;;;5101239;28;20325;-80
2022/09/01 13:15:49;;;;;;;11.02;10.73;;;22.70;99.90;;;;;;5100599;28;20240;-80
2022/09/01 13:18:26;;;;;;;11.40;11.10;;;22.70;99.90;;;;;;5101549;28;20265;-79
2022/09/01 13:20:55;;;;;;;11.15;10.85;;;22.80;99.90;;;;;;5100770;28;20260;-79
2022/09/01 13:23:25;;;;;;;11.30;11.00;;;22.90;99.90;;;;;;5101207;28;20225;-80
2022/09/01 13:25:54;;;;;;;10.82;10.52;;;23.10;99.90;;;;;;5100475;28;20239;-79
2022/09/01 13:28:24;;;;;;;10.35;10.05;;;23.20;99.90;;;;;;5100590;28;20244;-80
2022/09/01 13:30:55;;;;;;;10.50;10.20;;;23.20;99.90;;;;;;5100548;28;20332;-79
2022/09/01 13:33:25;;;;;;;11.00;10.70;;;23.30;99.90;;;;;;5101009;28;20281;-80
2022/09/01 13:35:54;;;;;;;10.52;10.23;;;23.50;99.90;;;;;;5099930;28;20265;-81
2022/09/01 13:38:22;;;;;;;10.88;10.57;;;23.60;99.90;;;;;;5100244;28;20264;-81
2022/09/01 13:40:51;;;;;;;10.95;10.65;;;23.80;99.90;;;;;;5101147;28;20296;-80
2022/09/01 13:43:21;;;;;;;11.70;11.30;;;24.00;99.90;;;;;;5101713;28;20233;-80
2022/09/01 13:45:50;;;;;;;11.85;11.45;;;24.10;99.90;;;;;;5100693;28;20324;-80
2022/09/01 13:48:19;;;;;;;11.80;11.40;;;24.00;99.90;;;;;;5101151;28;20287;-80
2022/09/01 13:50:57;;;;;;;11.75;11.35;;;23.90;99.90;;;;;;5100650;28;20328;-80
2022/09/01 13:53:25;;;;;;;11.90;11.50;;;23.80;99.90;;;;;;5100746;28;20221;-80
2022/09/01 13:55:57;;;;;;;11.57;11.18;;;24.00;99.90;;;;;;5100718;28;20297;-80
2022/09/01 13:58:25;;;;;;;11.30;11.00;;;24.40;99.90;;;;;;5103253;28;20244;-79
2022/09/01 14:00:58;;;;;;;11.60;11.25;;;24.80;99.90;;;;;;5101819;28;20316;-80
2022/09/01 14:03:26;;;;;;;11.77;11.38;;;25.10;99.90;;;;;;5101715;28;20283;-81
2022/09/01 14:05:56;;;;;;;11.27;10.98;;;25.20;99.90;;;;;;5101130;28;20263;-80
2022/09/01 14:08:24;;;;;;;11.25;10.95;;;25.60;99.90;;;;;;5102265;28;20259;-80
2022/09/01 14:10:54;;;;;;;11.85;11.45;;;26.30;99.90;;;;;;5102116;28;20301;-81
2022/09/01 14:13:24;;;;;;;11.80;11.40;;;27.00;99.90;;;;;;5102643;28;20229;-81
2022/09/01 14:15:52;;;;;;;11.77;11.38;;;27.40;99.90;;;;;;5102135;28;20233;-80
2022/09/01 14:18:21;;;;;;;11.95;11.55;;;27.60;99.90;;;;;;5102011;28;20237;-80
2022/09/01 14:20:51;;;;;;;11.98;11.57;;;27.50;99.90;;;;;;5101696;28;20241;-79